Lydick, Indiana
Current Conditions -  °F | °C
As of 2:54 AM on Friday 31 Oct 2014 (Local Time) from KSBN Reporting Station
Overcast Overcast  
Wind Chill: 40°   Ceiling: 7000
Heat Index: 44°   Visibility: 10mi
Dew Point: 36°   Wind: 7mph
Humidity: 73%   Direction: 240°WSW
Pressure: 29.99"   Gusts: NA
Location:  41.7216°N, 86.3352°W
Report Text: KSBN 310654Z 24006KT 10SM OVC070 07/02 A2999 RMK AO2 SLP159 T00670022
Loading
Personal Weather Stations






























Interactive Weather Map
Tropical Storm Tracking
New forecast layout! Learn more

10-Day Weather Forecast

Advertisements
Track Severe Weather on mobile